Time;durP1;ratioP1;P1;durP2;ratioP2;P2;SDS_P1;SDS_P2;PMS_P1;PMS_P2;Temp;Humidity;BMP_temperature;BMP_pressure;BME280_temperature;BME280_humidity;BME280_pressure;Samples;Min_cycle;Max_cycle;Signal;HPM_P1;HPM_P2
2022/10/30 00:01:35;;;;;;;21.80;8.50;;;;;;;15.55;89.17;101548.19;5018748;28;20040;-85
2022/10/30 00:04:01;;;;;;;18.40;9.10;;;;;;;15.49;89.92;101547.19;5019350;28;20025;-84
2022/10/30 00:06:26;;;;;;;20.10;8.30;;;;;;;15.49;90.14;101546.34;5019891;28;20040;-85
2022/10/30 00:08:51;;;;;;;18.80;8.87;;;;;;;15.37;90.68;101543.56;5018890;28;20033;-85
2022/10/30 00:11:17;;;;;;;20.07;8.80;;;;;;;15.40;90.20;101534.06;5000490;28;20044;-85
2022/10/30 00:13:44;;;;;;;17.70;8.00;;;;;;;15.38;90.45;101544.38;4984118;28;20093;-85
2022/10/30 00:16:09;;;;;;;18.50;8.53;;;;;;;15.10;91.68;101537.53;5019073;28;20098;-84
2022/10/30 00:18:37;;;;;;;19.40;8.73;;;;;;;15.21;91.32;101536.78;5018795;28;20411;-84
2022/10/30 00:21:10;;;;;;;19.13;8.97;;;;;;;15.30;90.98;101540.91;5017760;28;20493;-84
2022/10/30 00:23:36;;;;;;;21.42;9.27;;;;;;;15.21;91.32;101538.69;5011499;28;20075;-84
2022/10/30 00:26:05;;;;;;;20.20;9.40;;;;;;;15.22;91.38;101545.78;5033666;28;20052;-85
2022/10/30 00:28:31;;;;;;;24.97;9.10;;;;;;;15.19;91.26;101553.41;5019432;28;20141;-84
2022/10/30 00:31:14;;;;;;;16.37;8.20;;;;;;;15.16;91.26;101550.28;5018374;28;20082;-84
2022/10/30 00:33:40;;;;;;;19.13;8.73;;;;;;;15.21;90.53;101553.16;5019983;28;20124;-82
2022/10/30 00:36:05;;;;;;;17.00;8.37;;;;;;;15.23;90.66;101540.13;5018490;28;20029;-84
2022/10/30 00:38:31;;;;;;;19.07;8.27;;;;;;;15.15;91.11;101537.66;5019019;28;20057;-84
2022/10/30 00:40:56;;;;;;;19.80;8.33;;;;;;;15.18;91.55;101551.72;5018231;28;20041;-85
2022/10/30 00:43:35;;;;;;;19.73;8.87;;;;;;;15.18;91.82;101549.00;5018960;28;20073;-84
2022/10/30 00:46:12;;;;;;;21.87;8.83;;;;;;;15.14;91.98;101541.50;5018057;28;20124;-84
2022/10/30 00:48:38;;;;;;;18.97;8.53;;;;;;;15.09;91.80;101533.97;5018143;28;20032;-85
2022/10/30 00:51:09;;;;;;;18.77;9.50;;;;;;;15.09;92.12;101538.59;5018830;28;20243;-84
2022/10/30 00:53:35;;;;;;;18.77;8.80;;;;;;;15.10;91.99;101534.81;5019019;28;20033;-84
2022/10/30 00:56:05;;;;;;;19.30;9.07;;;;;;;15.08;92.00;101531.47;5018217;28;20041;-84
2022/10/30 00:58:40;;;;;;;18.93;8.63;;;;;;;15.11;91.88;101536.47;5018961;28;20029;-84
2022/10/30 01:01:10;;;;;;;23.37;10.07;;;;;;;15.10;92.06;101538.38;5021104;28;20087;-85
2022/10/30 01:03:38;;;;;;;19.53;8.73;;;;;;;15.14;92.36;101530.56;5022530;28;20816;-84
2022/10/30 01:06:07;;;;;;;19.50;8.20;;;;;;;15.16;92.20;101533.88;5020141;28;20106;-84
2022/10/30 01:08:33;;;;;;;19.23;9.57;;;;;;;15.14;92.02;101533.28;5022847;28;20045;-84
2022/10/30 01:11:01;;;;;;;20.23;9.10;;;;;;;15.16;91.89;101528.44;5021169;28;20045;-84
2022/10/30 01:13:27;;;;;;;20.27;9.07;;;;;;;15.08;92.06;101531.47;5021585;28;20072;-85
2022/10/30 01:16:21;;;;;;;20.27;9.00;;;;;;;15.14;92.64;101533.28;5022738;28;20049;-84
2022/10/30 01:18:52;;;;;;;19.60;9.68;;;;;;;15.08;92.78;101537.78;5022111;28;20033;-84
2022/10/30 01:21:41;;;;;;;20.97;9.07;;;;;;;15.10;92.70;101534.81;5036284;28;20666;-85
2022/10/30 01:24:45;;;;;;;21.20;8.80;;;;;;;15.12;92.70;101543.59;5022566;28;20040;-85
2022/10/30 01:27:34;;;;;;;20.07;8.90;;;;;;;15.09;93.00;101547.59;4987501;28;20041;-85
2022/10/30 01:30:11;;;;;;;22.27;9.10;;;;;;;15.03;92.96;101545.78;5021550;28;20048;-85
2022/10/30 01:33:01;;;;;;;19.10;8.77;;;;;;;15.00;93.22;101546.22;5021422;28;20087;-85
2022/10/30 01:35:29;;;;;;;18.43;9.07;;;;;;;14.94;93.42;101547.94;5021293;28;20037;-84
2022/10/30 01:38:08;;;;;;;20.23;9.70;;;;;;;14.87;93.83;101541.72;5020981;28;20029;-84
2022/10/30 01:40:35;;;;;;;18.77;9.77;;;;;;;14.79;93.75;101537.38;5020311;28;20701;-85
2022/10/30 01:43:01;;;;;;;20.23;9.00;;;;;;;14.74;93.75;101548.16;5020393;28;20040;-84
2022/10/30 01:46:11;;;;;;;17.97;9.33;;;;;;;14.79;94.16;101552.94;5002685;28;20123;-84
2022/10/30 01:49:15;;;;;;;20.73;9.23;;;;;;;14.71;94.41;101555.94;4987820;28;20133;-84
2022/10/30 01:51:50;;;;;;;19.47;9.20;;;;;;;14.68;94.54;101549.03;4977323;28;20130;-84
2022/10/30 01:54:24;;;;;;;20.47;9.27;;;;;;;14.66;94.64;101554.72;5014418;28;20048;-85
2022/10/30 01:57:14;;;;;;;17.73;8.75;;;;;;;14.67;95.17;101555.53;5020327;28;21514;-84
2022/10/30 01:59:52;;;;;;;18.90;9.77;;;;;;;14.66;95.23;101545.66;5035289;28;20088;-85
2022/10/30 02:02:17;;;;;;;23.13;9.70;;;;;;;14.65;95.46;101544.84;5020548;28;20041;-84
2022/10/30 02:04:43;;;;;;;19.97;9.50;;;;;;;14.57;95.86;101547.81;5021594;28;20481;-85
2022/10/30 02:07:10;;;;;;;21.67;9.87;;;;;;;14.61;95.67;101551.78;5020276;28;20033;-85
2022/10/30 02:09:36;;;;;;;23.30;9.63;;;;;;;14.64;95.96;101556.81;5021364;28;20724;-85
2022/10/30 02:12:02;;;;;;;19.40;9.70;;;;;;;14.59;96.03;101544.84;5018592;28;20041;-85
2022/10/30 02:14:30;;;;;;;22.87;10.00;;;;;;;14.58;96.06;101552.22;5021203;28;20061;-84
2022/10/30 02:16:59;;;;;;;22.80;9.47;;;;;;;14.52;96.33;101566.72;5001109;28;20405;-84
2022/10/30 02:19:24;;;;;;;21.90;9.90;;;;;;;14.53;96.37;101561.03;5020835;28;20485;-82
2022/10/30 02:21:50;;;;;;;19.13;8.73;;;;;;;14.61;95.97;101559.94;5036102;28;20049;-84
2022/10/30 02:24:16;;;;;;;19.63;8.93;;;;;;;14.67;96.08;101556.38;5020387;28;20919;-83
2022/10/30 02:26:41;;;;;;;20.03;9.27;;;;;;;14.63;95.99;101546.97;5021617;28;20033;-84
2022/10/30 02:29:06;;;;;;;18.97;9.17;;;;;;;14.56;96.18;101540.69;5020716;28;20060;-85
2022/10/30 02:31:32;;;;;;;20.70;9.77;;;;;;;14.51;96.95;101555.00;5020710;28;20175;-85
2022/10/30 02:33:57;;;;;;;18.93;9.47;;;;;;;14.49;96.93;101567.19;5019946;28;20078;-85
2022/10/30 02:36:23;;;;;;;20.57;9.50;;;;;;;14.43;96.93;101559.88;5020186;28;20128;-84
2022/10/30 02:38:49;;;;;;;17.60;9.33;;;;;;;14.35;97.05;101564.53;5020044;28;20037;-84
2022/10/30 02:41:14;;;;;;;19.10;9.83;;;;;;;14.33;97.46;101563.94;5020808;28;20040;-85
2022/10/30 02:43:40;;;;;;;21.13;9.57;;;;;;;14.29;97.75;101570.88;5020672;28;20504;-85
2022/10/30 02:46:05;;;;;;;19.90;9.83;;;;;;;14.29;97.92;101567.28;5019501;28;20041;-84
2022/10/30 02:48:31;;;;;;;19.13;10.57;;;;;;;14.24;98.26;101564.38;5020324;28;20460;-85
2022/10/30 02:51:00;;;;;;;20.83;9.47;;;;;;;14.17;98.36;101567.16;5019593;28;20033;-85
2022/10/30 02:53:26;;;;;;;24.30;10.40;;;;;;;14.22;99.11;101566.50;4999708;28;20936;-84
2022/10/30 02:55:51;;;;;;;17.47;9.63;;;;;;;14.22;98.68;101571.97;5019693;28;20040;-83
2022/10/30 02:58:17;;;;;;;19.93;9.40;;;;;;;14.14;98.54;101564.88;5020144;28;20308;-84
2022/10/30 03:00:42;;;;;;;18.30;9.37;;;;;;;14.17;98.67;101559.81;5019311;28;20131;-84
2022/10/30 03:03:07;;;;;;;20.60;9.50;;;;;;;14.17;98.73;101564.41;5019546;28;20036;-83
2022/10/30 03:05:33;;;;;;;18.93;8.77;;;;;;;14.19;98.99;101562.31;5034416;28;20053;-83
2022/10/30 03:07:58;;;;;;;23.07;9.27;;;;;;;14.22;98.83;101564.59;5018604;28;20041;-82
2022/10/30 03:10:23;;;;;;;17.53;8.57;;;;;;;14.21;98.38;101554.78;5020014;28;20084;-83
2022/10/30 03:12:49;;;;;;;20.03;9.63;;;;;;;14.16;98.53;101560.03;5019492;28;20131;-84
2022/10/30 03:15:14;;;;;;;22.73;9.30;;;;;;;14.22;98.87;101555.59;5019666;28;20051;-84
2022/10/30 03:17:40;;;;;;;19.00;9.00;;;;;;;14.20;98.74;101555.84;5019376;28;20073;-84
2022/10/30 03:20:05;;;;;;;18.83;9.20;;;;;;;14.12;99.15;101558.81;5019675;28;20049;-83
2022/10/30 03:22:31;;;;;;;17.43;9.20;;;;;;;14.17;99.33;101562.56;5033241;28;20816;-83
2022/10/30 03:24:56;;;;;;;18.73;9.53;;;;;;;14.14;99.51;101553.97;5019574;28;20037;-84
2022/10/30 03:27:21;;;;;;;22.00;9.33;;;;;;;14.08;99.77;101555.69;5006842;28;20356;-85
2022/10/30 03:29:47;;;;;;;20.47;9.37;;;;;;;14.10;99.96;101556.31;5020077;28;20501;-84
2022/10/30 03:32:12;;;;;;;18.70;9.63;;;;;;;14.01;100.00;101552.97;5018740;28;21509;-85
2022/10/30 03:34:37;;;;;;;20.20;9.67;;;;;;;14.06;100.00;101556.94;5019602;28;20048;-85
2022/10/30 03:37:03;;;;;;;17.47;9.10;;;;;;;14.00;100.00;101554.03;5018234;28;20148;-83
2022/10/30 03:39:29;;;;;;;20.27;9.03;;;;;;;14.09;100.00;101551.91;5033845;28;20056;-84
2022/10/30 03:41:54;;;;;;;19.60;9.07;;;;;;;14.10;99.82;101552.72;5018938;28;20052;-84
2022/10/30 03:44:20;;;;;;;21.03;9.43;;;;;;;14.10;99.82;101553.59;5019127;28;20417;-83
2022/10/30 03:46:45;;;;;;;18.73;9.20;;;;;;;14.06;99.93;101565.13;5018008;28;20045;-82
2022/10/30 03:49:11;;;;;;;17.90;9.83;;;;;;;14.05;100.00;101555.25;5033777;28;20132;-84
2022/10/30 03:51:36;;;;;;;20.37;9.57;;;;;;;14.13;100.00;101560.47;5034117;28;20765;-84
2022/10/30 03:54:01;;;;;;;23.90;10.60;;;;;;;14.07;100.00;101558.63;5000905;28;20080;-81
2022/10/30 03:56:27;;;;;;;17.60;10.00;;;;;;;14.04;100.00;101564.53;5020038;28;20034;-84
2022/10/30 03:58:52;;;;;;;17.33;9.50;;;;;;;14.06;100.00;101565.13;5034313;28;20697;-83
2022/10/30 04:01:18;;;;;;;17.93;9.43;;;;;;;14.04;100.00;101564.53;5019646;28;20770;-83
2022/10/30 04:03:43;;;;;;;19.77;9.00;;;;;;;14.02;100.00;101571.00;5017859;28;20132;-84
2022/10/30 04:06:08;;;;;;;22.47;10.13;;;;;;;14.01;100.00;101573.97;5019173;28;20075;-84
2022/10/30 04:08:34;;;;;;;18.73;9.60;;;;;;;13.94;100.00;101570.41;5019063;28;20044;-83
2022/10/30 04:10:59;;;;;;;17.27;9.43;;;;;;;13.93;100.00;101566.84;5018030;28;20038;-84
2022/10/30 04:13:25;;;;;;;18.57;9.30;;;;;;;13.86;100.00;101568.78;5034761;28;20306;-84
2022/10/30 04:15:51;;;;;;;22.00;11.60;;;;;;;13.87;100.00;101577.78;5006861;28;20049;-83
2022/10/30 04:18:16;;;;;;;23.30;11.87;;;;;;;13.80;100.00;101577.81;5000113;28;21361;-84
2022/10/30 04:20:43;;;;;;;23.83;11.13;;;;;;;13.67;100.00;101587.69;5034005;28;20693;-84
2022/10/30 04:23:12;;;;;;;24.70;12.97;;;;;;;13.66;100.00;101574.31;5017877;28;20048;-85
2022/10/30 04:25:38;;;;;;;28.40;13.93;;;;;;;13.62;100.00;101571.16;5000087;28;20037;-85
2022/10/30 04:28:03;;;;;;;29.20;15.20;;;;;;;13.64;100.00;101569.06;5018197;28;20498;-85
2022/10/30 04:30:33;;;;;;;27.53;15.53;;;;;;;13.61;100.00;101571.38;5019147;28;20072;-85
2022/10/30 04:33:00;;;;;;;26.17;15.17;;;;;;;13.62;100.00;101560.25;5018229;28;20037;-85
2022/10/30 04:35:28;;;;;;;24.53;12.47;;;;;;;13.60;100.00;101569.69;5036461;28;20029;-85
2022/10/30 04:38:02;;;;;;;17.87;9.57;;;;;;;13.64;100.00;101571.78;5022499;28;20033;-84
2022/10/30 04:40:30;;;;;;;20.13;10.32;;;;;;;13.66;100.00;101574.31;5022239;28;20073;-85
2022/10/30 04:42:56;;;;;;;20.30;9.73;;;;;;;13.65;100.00;101573.47;5004655;28;20030;-85
2022/10/30 04:45:22;;;;;;;22.20;9.87;;;;;;;13.64;100.00;101569.06;5022842;28;20049;-84
2022/10/30 04:47:47;;;;;;;18.27;9.77;;;;;;;13.66;100.00;101557.97;5021961;28;20125;-85
2022/10/30 04:50:13;;;;;;;19.30;9.67;;;;;;;13.62;100.00;101557.53;5022710;28;20119;-85
2022/10/30 04:52:39;;;;;;;19.30;9.63;;;;;;;13.48;100.00;101554.03;5002490;28;20041;-85
2022/10/30 04:55:05;;;;;;;22.07;9.97;;;;;;;13.46;100.00;101549.84;5021797;28;20040;-85
2022/10/30 04:57:30;;;;;;;21.23;10.43;;;;;;;13.40;100.00;101545.28;5003782;28;20051;-84
2022/10/30 04:59:58;;;;;;;20.07;10.37;;;;;;;13.39;100.00;101546.31;5021913;28;20049;-84
2022/10/30 05:02:23;;;;;;;21.40;10.30;;;;;;;13.37;100.00;101527.47;5021801;28;20065;-85
2022/10/30 05:04:48;;;;;;;19.10;9.90;;;;;;;13.40;100.00;101531.66;5022485;28;20275;-84
2022/10/30 05:07:15;;;;;;;21.07;9.70;;;;;;;13.37;100.00;101534.78;5021421;28;20029;-84
2022/10/30 05:09:40;;;;;;;18.80;9.93;;;;;;;13.30;100.00;101546.53;5021044;28;20041;-84
2022/10/30 05:12:06;;;;;;;19.93;10.00;;;;;;;13.39;100.00;101540.88;5020824;28;20064;-84
2022/10/30 05:14:32;;;;;;;20.20;10.53;;;;;;;13.37;100.00;101548.41;5021345;28;20115;-85
2022/10/30 05:16:57;;;;;;;19.33;10.13;;;;;;;13.31;100.00;101540.03;5020752;28;20045;-85
2022/10/30 05:19:23;;;;;;;19.03;10.30;;;;;;;13.30;100.00;101540.22;5021615;28;20538;-84
2022/10/30 05:21:48;;;;;;;18.80;10.50;;;;;;;13.27;100.00;101549.69;5021073;28;20100;-85
2022/10/30 05:24:14;;;;;;;15.93;9.83;;;;;;;13.28;100.00;101556.75;5021914;28;20045;-85
2022/10/30 05:26:39;;;;;;;19.07;10.00;;;;;;;13.22;100.00;101556.78;5021992;28;20481;-84
2022/10/30 05:29:42;;;;;;;15.70;9.73;;;;;;;13.16;100.00;101553.03;5020800;28;20724;-85
2022/10/30 05:32:07;;;;;;;17.70;9.90;;;;;;;13.02;100.00;101540.50;5021436;28;20041;-84
2022/10/30 05:34:32;;;;;;;16.00;9.83;;;;;;;12.97;100.00;101546.56;5020781;28;20037;-85
2022/10/30 05:36:58;;;;;;;18.43;10.37;;;;;;;12.85;100.00;101554.50;5035336;28;20041;-85
2022/10/30 05:39:23;;;;;;;19.43;11.00;;;;;;;12.84;100.00;101558.28;5003258;28;20045;-84
2022/10/30 05:41:48;;;;;;;21.40;10.40;;;;;;;12.75;100.00;101570.44;5037336;28;20468;-84
2022/10/30 05:44:14;;;;;;;21.23;10.87;;;;;;;12.72;100.00;101568.13;5020924;28;20128;-85
2022/10/30 05:46:39;;;;;;;20.53;10.33;;;;;;;12.56;100.00;101563.94;5019901;28;20045;-85
2022/10/30 05:49:05;;;;;;;18.87;10.63;;;;;;;12.51;100.00;101559.09;5021275;28;20029;-85
2022/10/30 05:51:30;;;;;;;19.73;10.50;;;;;;;12.50;100.00;101560.16;5020918;28;20493;-85
2022/10/30 05:53:55;;;;;;;21.80;10.93;;;;;;;12.45;100.00;101558.03;5020283;28;20511;-85
2022/10/30 05:56:21;;;;;;;20.03;11.03;;;;;;;12.46;100.00;101567.06;5022169;28;20127;-85
2022/10/30 05:58:49;;;;;;;18.07;11.10;;;;;;;12.38;100.00;101557.22;5020639;28;20168;-85
2022/10/30 06:01:14;;;;;;;21.57;12.00;;;;;;;12.34;100.00;101555.94;5003493;28;20045;-85
2022/10/30 06:03:40;;;;;;;23.10;11.13;;;;;;;12.27;100.00;101561.38;5021137;28;20052;-85
2022/10/30 06:06:11;;;;;;;21.37;11.03;;;;;;;12.25;100.00;101560.75;5036198;28;20771;-85
2022/10/30 06:08:36;;;;;;;19.27;10.80;;;;;;;12.16;100.00;101551.09;5020372;28;20041;-85
2022/10/30 06:11:02;;;;;;;17.73;10.73;;;;;;;12.16;100.00;101560.09;5020263;28;20063;-85
2022/10/30 06:13:27;;;;;;;19.77;10.80;;;;;;;12.11;100.00;101556.31;5020321;28;20152;-85
2022/10/30 06:15:56;;;;;;;20.23;10.53;;;;;;;12.03;100.00;101554.59;5020549;28;20077;-84
2022/10/30 06:18:22;;;;;;;18.97;11.17;;;;;;;12.01;100.00;101550.41;5007700;28;20052;-84
2022/10/30 06:20:47;;;;;;;19.47;11.80;;;;;;;12.01;100.00;101554.00;5019735;28;21393;-85
2022/10/30 06:23:13;;;;;;;20.17;11.13;;;;;;;11.92;100.00;101563.31;5018758;28;20042;-85
2022/10/30 06:25:38;;;;;;;19.03;10.57;;;;;;;11.93;100.00;101565.00;5020371;28;20120;-84
2022/10/30 06:28:04;;;;;;;17.27;10.23;;;;;;;11.83;100.00;101560.78;5020100;28;20053;-84
2022/10/30 06:30:29;;;;;;;20.43;11.50;;;;;;;11.81;100.00;101554.69;5019753;28;20167;-84
2022/10/30 06:32:56;;;;;;;20.70;11.43;;;;;;;11.75;100.00;101541.97;5019695;28;20086;-84
2022/10/30 06:35:21;;;;;;;21.23;12.73;;;;;;;11.81;100.00;101553.88;5020842;28;20041;-84
2022/10/30 06:37:47;;;;;;;21.47;12.10;;;;;;;11.76;100.00;101551.78;5019701;28;20049;-84
2022/10/30 06:40:14;;;;;;;20.20;12.03;;;;;;;11.78;100.00;101540.72;5019855;28;20077;-85
2022/10/30 06:42:43;;;;;;;23.93;13.10;;;;;;;11.80;100.00;101549.47;5020274;28;20030;-84
2022/10/30 06:45:09;;;;;;;23.13;13.10;;;;;;;11.84;100.00;101539.88;5020774;28;20053;-84
2022/10/30 06:47:35;;;;;;;20.13;12.83;;;;;;;11.88;100.00;101540.31;5019593;28;20037;-84
2022/10/30 06:50:01;;;;;;;21.20;12.90;;;;;;;11.91;100.00;101546.19;5018918;28;20069;-84
2022/10/30 06:52:26;;;;;;;22.50;13.27;;;;;;;11.90;100.00;101549.09;5011302;28;20091;-85
2022/10/30 06:54:51;;;;;;;20.40;13.17;;;;;;;11.91;100.00;101538.06;5020023;28;20931;-85
2022/10/30 06:57:17;;;;;;;21.50;13.33;;;;;;;12.01;100.00;101551.28;5019604;28;20483;-84
2022/10/30 06:59:42;;;;;;;20.97;13.77;;;;;;;12.06;100.00;101548.78;5020572;28;20599;-84
2022/10/30 07:02:09;;;;;;;23.00;13.00;;;;;;;12.11;100.00;101549.00;5019840;28;20463;-85
2022/10/30 07:04:35;;;;;;;24.23;13.27;;;;;;;12.18;100.00;101554.44;5020656;28;20037;-84
2022/10/30 07:07:00;;;;;;;20.77;12.97;;;;;;;12.19;100.00;101544.44;5019100;28;20171;-85
2022/10/30 07:09:25;;;;;;;19.70;13.00;;;;;;;12.21;100.00;101543.19;5019707;28;20041;-85
2022/10/30 07:11:51;;;;;;;20.40;11.63;;;;;;;12.27;100.00;101539.63;4999893;28;20045;-85
2022/10/30 07:14:16;;;;;;;21.40;13.00;;;;;;;12.29;100.00;101537.56;5019148;28;20033;-87
2022/10/30 07:16:41;;;;;;;20.87;12.17;;;;;;;12.30;100.00;101533.78;5019968;28;20037;-85
2022/10/30 07:19:07;;;;;;;21.70;12.53;;;;;;;12.31;100.00;101526.47;5020652;28;20042;-86
2022/10/30 07:21:32;;;;;;;21.63;11.73;;;;;;;12.40;100.00;101532.53;5020276;28;20053;-86
2022/10/30 07:23:57;;;;;;;21.97;11.90;;;;;;;12.47;100.00;101534.22;5018016;28;20124;-86
2022/10/30 07:26:23;;;;;;;20.37;11.70;;;;;;;12.55;100.00;101545.94;5020090;28;20041;-87
2022/10/30 07:28:48;;;;;;;20.73;11.50;;;;;;;12.62;100.00;101542.19;5034739;28;20411;-85
2022/10/30 07:31:13;;;;;;;18.23;10.67;;;;;;;12.75;100.00;101544.06;5019432;28;20127;-86
2022/10/30 07:33:38;;;;;;;20.17;10.77;;;;;;;12.85;100.00;101540.91;5020093;28;20156;-87
2022/10/30 07:36:04;;;;;;;19.13;10.43;;;;;;;12.98;100.00;101535.47;5019546;28;20134;-85
2022/10/30 07:38:30;;;;;;;19.80;10.37;;;;;;;13.08;100.00;101545.09;5033995;28;20124;-85
2022/10/30 07:40:55;;;;;;;19.17;10.43;;;;;;;13.22;100.00;101540.44;5018760;28;20048;-85
2022/10/30 07:43:20;;;;;;;18.30;9.60;;;;;;;13.30;100.00;101546.53;5017490;28;20115;-86
2022/10/30 07:45:46;;;;;;;16.63;9.53;;;;;;;13.41;100.00;101544.19;5017132;28;20076;-86
2022/10/30 07:48:11;;;;;;;16.47;9.60;;;;;;;13.58;100.00;101548.13;5000153;28;20128;-86
2022/10/30 07:50:37;;;;;;;19.60;9.50;;;;;;;13.82;100.00;101551.19;5018538;28;20042;-85
2022/10/30 07:53:02;;;;;;;17.47;9.70;;;;;;;14.05;100.00;101547.09;5019308;28;20037;-85
2022/10/30 07:55:28;;;;;;;20.93;8.93;;;;;;;14.21;100.00;101543.88;5018356;28;20044;-85
2022/10/30 07:57:53;;;;;;;19.60;9.37;;;;;;;14.38;100.00;101532.44;5017967;28;20040;-84
2022/10/30 08:00:18;;;;;;;17.73;9.30;;;;;;;14.52;100.00;101531.28;5018883;28;20572;-85
2022/10/30 08:02:48;;;;;;;17.83;8.50;;;;;;;14.58;99.38;101535.84;5019852;28;20064;-85
2022/10/30 08:05:13;;;;;;;17.83;9.17;;;;;;;14.74;98.80;101541.84;5017823;28;20060;-86
2022/10/30 08:07:38;;;;;;;20.43;9.80;;;;;;;14.81;97.48;101548.91;5018961;28;20037;-85
2022/10/30 08:10:06;;;;;;;22.37;9.33;;;;;;;14.94;96.89;101549.84;5020610;28;20184;-86
2022/10/30 08:12:33;;;;;;;18.47;9.03;;;;;;;15.03;95.80;101545.78;5023279;28;20053;-85
2022/10/30 08:14:58;;;;;;;20.20;9.07;;;;;;;15.20;94.97;101551.50;5022400;28;20033;-85
2022/10/30 08:17:23;;;;;;;14.63;9.03;;;;;;;15.36;93.55;101545.44;5022297;28;20509;-85
2022/10/30 08:19:49;;;;;;;20.43;8.63;;;;;;;15.50;92.76;101548.03;5021082;28;21472;-86
2022/10/30 08:22:14;;;;;;;20.30;8.83;;;;;;;15.59;91.74;101537.63;5022879;28;20188;-87
2022/10/30 08:24:40;;;;;;;15.53;9.00;;;;;;;15.69;91.75;101532.47;5023118;28;20044;-87
2022/10/30 08:27:05;;;;;;;19.03;9.10;;;;;;;15.76;91.19;101522.31;5023198;28;20045;-86
2022/10/30 08:29:31;;;;;;;16.77;8.67;;;;;;;15.84;90.58;101523.88;5022388;28;20034;-86
2022/10/30 08:31:56;;;;;;;15.77;8.93;;;;;;;15.90;89.77;101522.97;5022839;28;20107;-86
2022/10/30 08:34:22;;;;;;;17.80;9.10;;;;;;;16.03;89.62;101524.69;5022837;28;20041;-85
2022/10/30 08:36:48;;;;;;;15.77;8.83;;;;;;;16.15;88.47;101536.50;5023433;28;20057;-86
2022/10/30 08:39:14;;;;;;;16.20;8.40;;;;;;;16.12;87.54;101538.88;5021631;28;20386;-86
2022/10/30 08:41:39;;;;;;;16.77;8.60;;;;;;;16.45;89.40;101552.03;5022043;28;20041;-85
2022/10/30 08:44:05;;;;;;;17.20;8.73;;;;;;;16.62;88.07;101559.56;5021708;28;20539;-86
2022/10/30 08:46:30;;;;;;;16.13;8.97;;;;;;;16.74;86.80;101556.84;5022251;28;20041;-84
2022/10/30 08:48:55;;;;;;;17.87;8.50;;;;;;;16.91;85.83;101548.84;5022416;28;20029;-86
2022/10/30 08:51:21;;;;;;;19.97;8.73;;;;;;;16.94;87.16;101538.22;5005507;28;20393;-86
2022/10/30 08:53:49;;;;;;;18.97;9.10;;;;;;;17.01;84.89;101538.09;5022969;28;20032;-86
2022/10/30 08:56:16;;;;;;;17.37;8.30;;;;;;;17.12;84.73;101544.66;5022666;28;20144;-86
2022/10/30 08:58:41;;;;;;;20.70;9.17;;;;;;;17.07;83.23;101541.78;5037356;28;20045;-86
2022/10/30 09:01:06;;;;;;;16.23;8.67;;;;;;;17.41;84.96;101548.31;5023099;28;20087;-86
2022/10/30 09:03:32;;;;;;;20.13;8.77;;;;;;;17.54;83.30;101544.47;5022879;28;20112;-86
2022/10/30 09:05:58;;;;;;;17.85;8.80;;;;;;;17.76;82.65;101554.78;5037547;28;20048;-86
2022/10/30 09:08:24;;;;;;;15.80;8.43;;;;;;;17.88;81.53;101552.84;5021879;28;20029;-86
2022/10/30 09:10:58;;;;;;;17.23;8.40;;;;;;;18.14;81.08;101556.13;5037633;28;20163;-86
2022/10/30 09:13:25;;;;;;;19.88;8.60;;;;;;;18.18;78.80;101540.84;5023110;28;20043;-86
2022/10/30 09:15:50;;;;;;;18.63;8.88;;;;;;;18.12;79.06;101541.84;5022987;28;20030;-85
2022/10/30 09:18:16;;;;;;;19.90;9.05;;;;;;;18.39;78.18;101536.56;5021431;28;20056;-87
2022/10/30 09:20:42;;;;;;;17.88;8.23;;;;;;;18.45;76.47;101534.72;5021320;28;20053;-86
2022/10/30 09:23:08;;;;;;;18.77;8.50;;;;;;;18.51;77.20;101528.25;5021975;28;20079;-85
2022/10/30 09:25:33;;;;;;;17.48;8.32;;;;;;;18.84;76.97;101523.84;5022094;28;20049;-86
2022/10/30 09:27:59;;;;;;;20.55;8.88;;;;;;;19.01;74.92;101521.94;5022264;28;20034;-87
2022/10/30 09:30:24;;;;;;;16.73;8.05;;;;;;;19.20;74.83;101524.38;5037182;28;20037;-87
2022/10/30 09:32:57;;;;;;;15.85;8.27;;;;;;;19.35;73.88;101527.38;5020381;28;20037;-85
2022/10/30 09:35:23;;;;;;;14.90;8.75;;;;;;;19.45;72.96;101515.66;5020046;28;20517;-86
2022/10/30 09:37:48;;;;;;;18.00;8.90;;;;;;;19.63;71.60;101522.75;5020807;28;20180;-86
2022/10/30 09:40:28;;;;;;;16.35;8.70;;;;;;;19.77;71.82;101534.19;5021565;28;20052;-86
2022/10/30 09:43:05;;;;;;;15.27;8.52;;;;;;;19.57;71.74;101530.13;5021710;28;20060;-86
2022/10/30 09:45:33;;;;;;;17.95;8.68;;;;;;;19.51;71.29;101530.31;5022277;28;20033;-86
2022/10/30 09:48:23;;;;;;;20.95;8.95;;;;;;;19.79;73.71;101531.22;5019877;28;20041;-87
2022/10/30 09:51:26;;;;;;;16.92;8.20;;;;;;;19.89;73.88;101529.41;5021922;28;20128;-84
2022/10/30 09:53:57;;;;;;;16.83;8.45;;;;;;;19.75;71.88;101533.63;5020706;28;20133;-84
2022/10/30 09:56:26;;;;;;;18.17;9.10;;;;;;;19.74;71.20;101540.22;5020838;28;20038;-86
2022/10/30 09:59:21;;;;;;;18.23;9.02;;;;;;;19.92;71.61;101552.00;5020448;28;20046;-86
2022/10/30 10:02:02;;;;;;;17.42;9.10;;;;;;;19.75;72.50;101563.88;5019890;28;20164;-86
2022/10/30 10:04:37;;;;;;;17.85;9.80;;;;;;;19.54;72.68;101560.03;5021312;28;20038;-85
2022/10/30 10:07:24;;;;;;;23.63;11.02;;;;;;;19.47;73.83;101564.88;5021237;28;20117;-85
2022/10/30 10:09:54;;;;;;;19.92;10.20;;;;;;;19.25;74.02;101560.19;5020847;28;20029;-86
2022/10/30 10:12:58;;;;;;;17.63;10.70;;;;;;;19.30;75.38;101553.94;5020943;28;20561;-86
2022/10/30 10:15:50;;;;;;;18.88;11.52;;;;;;;19.30;76.30;101560.25;5015998;28;20112;-85
2022/10/30 10:18:28;;;;;;;18.40;10.27;;;;;;;19.13;75.83;101556.72;5012311;28;20045;-87
2022/10/30 10:20:59;;;;;;;19.35;10.30;;;;;;;19.02;76.52;101550.22;5020891;28;20211;-86
2022/10/30 10:23:42;;;;;;;16.10;8.25;;;;;;;19.23;75.79;101545.88;5021283;28;20036;-86
2022/10/30 10:26:22;;;;;;;20.52;8.60;;;;;;;19.55;75.74;101542.44;5034699;28;20035;-86
2022/10/30 10:29:09;;;;;;;17.75;9.05;;;;;;;19.76;74.62;101539.94;5020554;28;20025;-87
2022/10/30 10:31:43;;;;;;;17.30;8.93;;;;;;;19.63;73.54;101542.00;5020302;28;20087;-85
2022/10/30 10:34:17;;;;;;;18.73;9.05;;;;;;;20.01;73.37;101544.94;5020214;28;20649;-86
2022/10/30 10:37:18;;;;;;;18.67;8.60;;;;;;;20.52;71.52;101544.59;5021422;28;20029;-86
2022/10/30 10:40:16;;;;;;;19.40;9.30;;;;;;;20.73;71.17;101540.16;5019895;28;20043;-87
2022/10/30 10:42:53;;;;;;;18.70;9.45;;;;;;;20.77;71.40;101540.44;5021431;28;20136;-86
2022/10/30 10:45:40;;;;;;;20.83;9.25;;;;;;;20.91;69.13;101542.47;5020139;28;20034;-86
2022/10/30 10:48:30;;;;;;;17.52;8.77;;;;;;;21.33;69.81;101540.81;5021030;28;20045;-85
2022/10/30 10:50:59;;;;;;;16.70;7.78;;;;;;;21.21;66.75;101540.19;5019640;28;20033;-85
2022/10/30 10:53:56;;;;;;;19.63;7.32;;;;;;;21.37;67.29;101541.94;5021857;28;20095;-85
2022/10/30 10:56:30;;;;;;;18.50;7.10;;;;;;;20.87;67.26;101537.75;5019210;28;20056;-86
2022/10/30 10:58:57;;;;;;;;;;;;;;;21.79;67.04;101536.63;5021463;28;20127;-86
2022/10/30 11:01:38;;;;;;;18.13;7.75;;;;;;;21.40;68.08;101538.63;5019294;28;19925;-85
2022/10/30 11:04:30;;;;;;;16.75;7.10;;;;;;;21.90;68.03;101541.91;5002874;28;20082;-85
2022/10/30 11:06:57;;;;;;;19.67;7.78;;;;;;;21.11;68.11;101532.69;5020234;28;21590;-85
2022/10/30 11:09:26;;;;;;;17.85;7.57;;;;;;;20.85;69.46;101545.47;5019902;28;20041;-87
2022/10/30 11:11:54;;;;;;;16.70;7.97;;;;;;;21.32;67.99;101546.59;5020537;28;20087;-85
2022/10/30 11:14:26;;;;;;;21.45;8.68;;;;;;;21.44;66.34;101538.13;5019980;28;20041;-87
2022/10/30 11:17:01;;;;;;;21.35;8.93;;;;;;;20.99;68.76;101538.41;5019300;28;20581;-86
2022/10/30 11:19:29;;;;;;;19.80;8.68;;;;;;;21.26;66.46;101537.47;5018928;28;20084;-86
2022/10/30 11:21:57;;;;;;;17.70;8.48;;;;;;;21.24;66.51;101528.63;5018336;28;21924;-86